Port Greville, Canada
Current Conditions -  °F | °C
As of 5:00 PM on Tuesday 25 Nov 2014 (Local Time) from CYZX Reporting Station
Broken Clouds Broken Clouds  
Wind Chill: 59°   Ceiling: 25000
Heat Index: 59°   Visibility: 15mi
Dew Point: 48°   Wind: 10mph
Humidity: 67%   Direction: 260°W
Pressure: 29.8"   Gusts: NA
Location:  45.42°N, 64.55°W
Report Text: CYZX 252100Z 26009KT 15SM FEW150 BKN250 15/09 A2980 RMK AC2CI3 WNDY HILL 24014G24KT SLP092
Loading
Personal Weather Stations






























Interactive Weather Map New forecast layout! Learn more

10-Day Weather Forecast

Advertisements
Track Severe Weather on mobile